Jacksonville, Georgia
Current Conditions -  °F | °C
As of 7:55 PM on Saturday 20 Dec 2014 (Local Time) from KFZG Reporting Station
Overcast Overcast  
Wind Chill: 13°   Ceiling: 9000
Heat Index: 13°   Visibility: 10mi
Dew Point: 12°   Wind: 3mph
Humidity: 91%   Direction: 60°ENE
Pressure: 30.18"   Gusts: NA
Location:  31.81°N, 82.98°W
Report Text: KFZG 210055Z AUTO 06003KT 10SM SCT055 SCT070 OVC090 13/12 A3018 RMK AO2 T01310116
Loading
Personal Weather Stations






























Interactive Weather Map New forecast layout! Learn more

10-Day Weather Forecast

Advertisements
Track Severe Weather on mobile